Time;durP1;ratioP1;P1;durP2;ratioP2;P2;SDS_P1;SDS_P2;PMS_P1;PMS_P2;Temp;Humidity;BMP_temperature;BMP_pressure;BME280_temperature;BME280_humidity;BME280_pressure;Samples;Min_cycle;Max_cycle;Signal;HPM_P1;HPM_P2
2021/10/15 00:00:40;;;;;;;15.63;4.13;;;;;;;11.12;73.87;101611.47;5008877;28;20506;-75
2021/10/15 00:03:05;;;;;;;15.40;3.55;;;;;;;11.09;74.19;101616.00;5010882;28;20490;-74
2021/10/15 00:05:31;;;;;;;7.07;3.53;;;;;;;11.00;74.33;101606.44;5012818;28;20026;-75
2021/10/15 00:07:57;;;;;;;7.63;3.30;;;;;;;10.92;74.52;101603.69;5015748;28;20065;-75
2021/10/15 00:10:23;;;;;;;15.50;3.42;;;;;;;10.97;73.90;101598.13;4995872;28;20030;-75
2021/10/15 00:12:49;;;;;;;10.00;3.38;;;;;;;10.93;74.93;101601.94;5007964;28;20065;-77
2021/10/15 00:15:15;;;;;;;12.02;3.67;;;;;;;10.97;74.49;101605.91;5008271;28;20065;-74
2021/10/15 00:17:40;;;;;;;11.18;3.53;;;;;;;10.92;74.50;101608.88;5008386;28;20034;-75
2021/10/15 00:20:06;;;;;;;12.70;4.00;;;;;;;10.90;74.77;101601.25;5028536;28;20080;-75
2021/10/15 00:22:32;;;;;;;8.98;3.53;;;;;;;10.81;75.21;101596.91;5011569;28;20075;-75
2021/10/15 00:24:58;;;;;;;6.75;3.20;;;;;;;10.87;74.32;101598.13;5003722;28;20426;-75
2021/10/15 00:27:23;;;;;;;8.27;3.22;;;;;;;10.81;74.68;101591.72;5007236;28;20499;-74
2021/10/15 00:29:49;;;;;;;10.98;3.60;;;;;;;10.83;74.76;101586.38;5013947;28;20040;-76
2021/10/15 00:32:15;;;;;;;10.68;3.72;;;;;;;10.77;74.92;101577.34;5010485;28;20030;-75
2021/10/15 00:34:40;;;;;;;6.88;3.35;;;;;;;10.73;74.63;101581.19;5013032;28;20505;-75
2021/10/15 00:37:07;;;;;;;9.70;5.18;;;;;;;10.66;74.96;101573.16;5014401;28;20092;-75
2021/10/15 00:39:32;;;;;;;11.15;3.42;;;;;;;10.62;75.24;101571.78;5007150;28;20025;-75
2021/10/15 00:41:58;;;;;;;9.07;3.45;;;;;;;10.60;75.37;101570.28;5008120;28;20040;-76
2021/10/15 00:44:23;;;;;;;10.05;4.18;;;;;;;10.74;74.22;101567.28;5009052;28;20050;-75
2021/10/15 00:46:49;;;;;;;9.00;3.30;;;;;;;10.62;74.84;101565.78;5006668;28;20034;-75
2021/10/15 00:49:15;;;;;;;8.77;4.18;;;;;;;10.61;74.49;101562.38;5007988;28;20030;-74
2021/10/15 00:51:42;;;;;;;7.38;3.70;;;;;;;10.57;75.04;101554.97;5010127;28;20034;-74
2021/10/15 00:54:12;;;;;;;6.82;3.35;;;;;;;10.53;75.17;101562.25;5006421;28;20490;-74
2021/10/15 00:56:37;;;;;;;6.75;3.53;;;;;;;10.44;75.07;101560.47;5011228;28;20310;-74
2021/10/15 00:59:03;;;;;;;11.15;4.13;;;;;;;10.30;75.63;101556.47;4991479;28;20045;-75
2021/10/15 01:01:29;;;;;;;8.95;3.75;;;;;;;10.36;75.53;101555.13;5014175;28;20044;-74
2021/10/15 01:03:58;;;;;;;16.90;4.40;;;;;;;10.38;75.64;101540.25;5005705;28;20656;-75
2021/10/15 01:06:23;;;;;;;10.05;3.92;;;;;;;10.27;75.95;101552.38;4992701;28;20041;-75
2021/10/15 01:08:49;;;;;;;14.50;4.72;;;;;;;10.27;75.67;101547.19;5029575;28;20394;-74
2021/10/15 01:11:16;;;;;;;10.85;4.05;;;;;;;10.18;76.36;101542.81;4997783;28;20389;-74
2021/10/15 01:13:42;;;;;;;10.35;4.03;;;;;;;10.16;76.21;101536.13;4996185;28;20060;-75
2021/10/15 01:16:10;;;;;;;10.23;4.05;;;;;;;10.15;75.80;101527.53;4999328;28;20041;-75
2021/10/15 01:18:37;;;;;;;11.68;3.75;;;;;;;10.13;76.37;101534.63;5016787;28;20038;-75
2021/10/15 01:21:04;;;;;;;17.90;4.00;;;;;;;10.09;76.35;101528.06;5014902;28;20377;-74
2021/10/15 01:23:48;;;;;;;9.88;4.47;;;;;;;10.16;76.25;101518.81;5011211;28;20055;-74
2021/10/15 01:26:13;;;;;;;13.45;4.10;;;;;;;10.00;76.78;101519.34;5009658;28;20038;-74
2021/10/15 01:28:39;;;;;;;9.43;3.67;;;;;;;9.90;77.23;101523.69;5025845;28;20096;-75
2021/10/15 01:31:05;;;;;;;10.75;4.60;;;;;;;9.92;77.03;101516.59;5015588;28;20053;-75
2021/10/15 01:33:30;;;;;;;12.80;4.47;;;;;;;9.89;77.21;101515.09;5015170;28;20034;-74
2021/10/15 01:35:56;;;;;;;19.17;4.68;;;;;;;9.86;76.88;101502.41;5009817;28;20478;-75
2021/10/15 01:38:22;;;;;;;12.52;4.85;;;;;;;9.81;77.39;101501.16;5009880;28;20033;-74
2021/10/15 01:40:47;;;;;;;8.65;4.28;;;;;;;9.77;77.60;101499.81;5013862;28;20064;-74
2021/10/15 01:43:21;;;;;;;10.57;3.78;;;;;;;9.80;77.56;101497.78;5008250;28;20041;-75
2021/10/15 01:45:47;;;;;;;13.18;4.40;;;;;;;9.79;77.94;101482.34;5013147;28;20040;-75
2021/10/15 01:48:12;;;;;;;10.85;4.00;;;;;;;9.77;77.91;101490.25;5009976;28;20415;-74
2021/10/15 01:50:38;;;;;;;9.90;4.53;;;;;;;9.80;77.51;101484.81;4989730;28;20038;-74
2021/10/15 01:53:04;;;;;;;10.80;4.40;;;;;;;9.83;77.67;101479.38;5015292;28;20045;-75
2021/10/15 01:55:30;;;;;;;13.63;4.80;;;;;;;9.77;77.73;101477.31;5014647;28;20467;-74
2021/10/15 01:57:55;;;;;;;12.48;4.65;;;;;;;9.72;78.27;101477.72;5012306;28;20030;-75
2021/10/15 02:00:21;;;;;;;11.77;4.93;;;;;;;9.71;78.15;101483.84;5008325;28;20029;-74
2021/10/15 02:02:46;;;;;;;11.27;4.93;;;;;;;9.89;77.63;101478.03;5013975;28;20455;-74
2021/10/15 02:05:14;;;;;;;11.48;4.97;;;;;;;9.76;78.17;101475.69;5010090;28;20045;-74
2021/10/15 02:07:42;;;;;;;13.10;4.85;;;;;;;9.81;78.05;101465.72;5009296;28;20029;-74
2021/10/15 02:10:08;;;;;;;13.20;5.03;;;;;;;9.78;77.98;101466.00;5008388;28;20065;-74
2021/10/15 02:12:34;;;;;;;12.40;5.15;;;;;;;9.82;78.20;101458.78;5010762;28;20042;-75
2021/10/15 02:15:00;;;;;;;12.93;5.00;;;;;;;9.93;77.54;101454.28;5008137;28;20080;-75
2021/10/15 02:17:25;;;;;;;13.25;5.03;;;;;;;9.80;77.91;101448.56;5006883;28;20110;-74
2021/10/15 02:19:51;;;;;;;13.35;4.40;;;;;;;9.82;78.24;101445.84;5008516;28;20037;-75
2021/10/15 02:22:17;;;;;;;11.82;5.40;;;;;;;9.82;77.94;101444.06;5007194;28;20041;-74
2021/10/15 02:24:43;;;;;;;14.88;5.60;;;;;;;9.77;78.10;101430.69;5008796;28;20087;-74
2021/10/15 02:27:08;;;;;;;12.13;5.75;;;;;;;9.88;78.13;101435.75;5007072;28;20538;-75
2021/10/15 02:29:34;;;;;;;16.25;5.35;;;;;;;9.98;77.85;101430.56;5005871;28;20041;-74
2021/10/15 02:32:00;;;;;;;22.20;5.80;;;;;;;9.95;77.58;101430.84;5013070;28;20041;-74
2021/10/15 02:34:26;;;;;;;14.73;4.95;;;;;;;9.90;78.33;101423.47;5015614;28;20253;-74
2021/10/15 02:36:51;;;;;;;10.82;5.38;;;;;;;9.89;77.98;101424.44;5017744;28;20146;-75
2021/10/15 02:39:17;;;;;;;11.70;5.60;;;;;;;9.92;77.40;101429.31;5007166;28;20048;-74
2021/10/15 02:41:43;;;;;;;14.57;5.70;;;;;;;10.04;77.93;101419.66;5013232;28;20029;-74
2021/10/15 02:44:11;;;;;;;16.00;5.38;;;;;;;9.90;77.83;101420.88;5005339;28;20029;-75
2021/10/15 02:46:38;;;;;;;14.32;5.10;;;;;;;9.95;78.00;101417.91;5028510;28;20029;-76
2021/10/15 02:49:04;;;;;;;15.63;5.38;;;;;;;9.89;77.68;101415.84;5008499;28;20402;-75
2021/10/15 02:51:29;;;;;;;13.55;5.13;;;;;;;9.88;77.91;101403.84;5008525;28;20034;-75
2021/10/15 02:53:55;;;;;;;12.57;5.35;;;;;;;9.85;78.06;101404.09;5010408;28;20456;-75
2021/10/15 02:56:21;;;;;;;10.07;5.13;;;;;;;9.94;78.01;101405.88;5004119;28;20049;-76
2021/10/15 02:58:46;;;;;;;13.95;5.45;;;;;;;9.92;78.01;101402.59;5007664;28;20045;-75
2021/10/15 03:01:12;;;;;;;11.32;4.97;;;;;;;9.87;78.12;101403.03;5007114;28;20025;-74
2021/10/15 03:03:39;;;;;;;18.35;7.10;;;;;;;9.95;77.45;101399.75;5010089;28;20283;-74
2021/10/15 03:06:06;;;;;;;12.75;5.20;;;;;;;9.91;77.99;101396.63;5005521;28;20038;-75
2021/10/15 03:08:31;;;;;;;16.65;6.00;;;;;;;9.92;77.94;101395.66;5011048;28;20037;-75
2021/10/15 03:10:57;;;;;;;13.70;5.40;;;;;;;9.98;77.84;101393.47;5010020;28;20387;-75
2021/10/15 03:13:22;;;;;;;13.30;5.05;;;;;;;10.00;78.13;101392.41;5006851;28;20034;-75
2021/10/15 03:15:48;;;;;;;14.27;5.50;;;;;;;9.94;77.66;101390.34;5013307;28;20118;-74
2021/10/15 03:18:16;;;;;;;17.23;5.15;;;;;;;10.07;77.61;101395.25;4995444;28;20056;-76
2021/10/15 03:20:41;;;;;;;11.68;4.90;;;;;;;10.01;77.65;101393.22;5008404;28;20483;-75
2021/10/15 03:23:07;;;;;;;15.95;5.47;;;;;;;10.03;78.14;101384.34;5027830;28;20494;-75
2021/10/15 03:25:33;;;;;;;13.88;4.93;;;;;;;9.96;78.75;101385.03;5011385;28;20087;-75
2021/10/15 03:27:58;;;;;;;13.05;4.78;;;;;;;9.94;78.56;101382.56;5006884;28;20041;-75
2021/10/15 03:30:25;;;;;;;8.45;4.78;;;;;;;10.00;78.32;101379.44;5011330;28;20046;-74
2021/10/15 03:32:51;;;;;;;16.05;5.47;;;;;;;10.00;78.09;101378.59;4992292;28;20041;-75
2021/10/15 03:35:16;;;;;;;11.45;4.97;;;;;;;10.03;78.57;101373.16;5008114;28;20056;-76
2021/10/15 03:37:41;;;;;;;14.27;5.53;;;;;;;10.04;78.36;101365.25;5006876;28;20033;-75
2021/10/15 03:40:08;;;;;;;16.00;4.80;;;;;;;10.10;78.33;101361.28;5005187;28;20092;-74
2021/10/15 03:42:33;;;;;;;14.10;5.78;;;;;;;10.00;78.23;101360.47;5006885;28;20030;-75
2021/10/15 03:44:59;;;;;;;12.73;5.40;;;;;;;10.03;78.25;101362.78;5007206;28;20553;-74
2021/10/15 03:47:24;;;;;;;18.00;6.13;;;;;;;10.13;78.36;101363.59;5013293;28;20533;-75
2021/10/15 03:49:50;;;;;;;16.92;4.80;;;;;;;10.02;78.64;101364.56;5022114;28;20042;-75
2021/10/15 03:52:15;;;;;;;13.02;5.50;;;;;;;9.99;78.04;101357.06;5005761;28;20430;-75
2021/10/15 03:54:41;;;;;;;10.07;5.22;;;;;;;10.07;78.02;101364.94;5009654;28;20116;-74
2021/10/15 03:57:07;;;;;;;17.50;5.45;;;;;;;10.01;78.18;101364.72;5009653;28;20062;-74
2021/10/15 03:59:32;;;;;;;11.32;5.07;;;;;;;10.08;78.66;101361.41;4988803;28;20391;-75
2021/10/15 04:01:58;;;;;;;12.75;4.97;;;;;;;10.00;78.31;101361.31;5012392;28;20033;-74
2021/10/15 04:04:23;;;;;;;14.73;5.82;;;;;;;10.03;78.49;101358.41;5022789;28;20034;-74
2021/10/15 04:06:49;;;;;;;14.38;5.80;;;;;;;10.24;77.58;101358.25;5008648;28;20056;-75
2021/10/15 04:09:14;;;;;;;8.32;4.80;;;;;;;10.22;77.81;101349.78;5005789;28;20034;-75
2021/10/15 04:11:40;;;;;;;9.50;4.38;;;;;;;10.03;78.32;101348.06;5011088;28;20033;-74
2021/10/15 04:14:05;;;;;;;18.38;5.32;;;;;;;10.05;78.56;101351.31;5009320;28;20081;-74
2021/10/15 04:16:31;;;;;;;12.93;4.65;;;;;;;10.07;78.06;101346.81;5009422;28;20026;-74
2021/10/15 04:18:56;;;;;;;8.57;4.75;;;;;;;10.23;78.18;101343.66;5007883;28;20042;-76
2021/10/15 04:21:22;;;;;;;16.90;5.47;;;;;;;10.14;78.00;101340.13;5008105;28;20026;-75
2021/10/15 04:23:47;;;;;;;20.33;5.65;;;;;;;10.12;78.36;101328.28;5007850;28;20050;-75
2021/10/15 04:26:13;;;;;;;16.17;5.60;;;;;;;10.06;78.72;101328.84;5005968;28;20029;-74
2021/10/15 04:28:39;;;;;;;16.83;5.63;;;;;;;10.03;78.29;101331.69;5007484;28;20045;-75
2021/10/15 04:31:04;;;;;;;12.45;4.88;;;;;;;10.06;78.53;101326.25;5008554;28;20034;-75
2021/10/15 04:33:29;;;;;;;11.13;5.00;;;;;;;10.00;78.75;101322.44;5016011;28;20025;-75
2021/10/15 04:35:55;;;;;;;11.05;4.70;;;;;;;10.07;78.23;101326.09;5002363;28;20490;-75
2021/10/15 04:38:20;;;;;;;15.38;4.93;;;;;;;10.13;78.43;101319.53;5011500;28;20084;-72
2021/10/15 04:40:46;;;;;;;13.75;5.53;;;;;;;10.04;78.61;101317.78;5010854;28;20040;-74
2021/10/15 04:43:11;;;;;;;12.88;4.93;;;;;;;10.04;78.54;101318.63;5018328;28;20084;-74
2021/10/15 04:45:37;;;;;;;9.32;5.30;;;;;;;10.07;78.23;101310.53;5016648;28;20041;-76
2021/10/15 04:48:03;;;;;;;15.20;5.28;;;;;;;10.08;78.60;101319.16;5027492;28;20040;-74
2021/10/15 04:50:30;;;;;;;16.05;5.20;;;;;;;10.05;78.70;101322.00;4992310;28;20022;-74
2021/10/15 04:52:57;;;;;;;13.45;5.15;;;;;;;10.07;78.53;101309.72;5014199;28;20111;-74
2021/10/15 04:55:22;;;;;;;12.43;5.07;;;;;;;10.01;78.63;101324.06;5013434;28;20033;-74
2021/10/15 04:57:48;;;;;;;14.65;6.00;;;;;;;10.02;78.48;101315.34;5011883;28;20041;-74
2021/10/15 05:00:14;;;;;;;16.40;5.50;;;;;;;10.03;78.49;101309.19;5010995;28;20033;-74
2021/10/15 05:02:40;;;;;;;11.43;5.30;;;;;;;10.12;79.00;101310.94;5013800;28;20032;-75
2021/10/15 05:05:07;;;;;;;12.65;5.03;;;;;;;10.07;78.53;101307.16;5009202;28;20038;-75
2021/10/15 05:07:34;;;;;;;13.50;5.80;;;;;;;10.11;78.71;101311.09;4997296;28;20034;-75
2021/10/15 05:10:00;;;;;;;11.25;4.45;;;;;;;10.16;78.58;101310.69;5031924;28;20033;-75
2021/10/15 05:12:27;;;;;;;14.18;5.43;;;;;;;10.12;78.54;101305.75;5009784;28;20073;-74
2021/10/15 05:14:52;;;;;;;12.45;4.60;;;;;;;10.12;78.57;101303.16;5024297;28;20232;-74
2021/10/15 05:17:18;;;;;;;11.80;5.45;;;;;;;10.07;79.17;101300.19;5009591;28;20033;-74
2021/10/15 05:19:43;;;;;;;9.60;4.80;;;;;;;10.01;79.24;101295.56;5012389;28;20064;-75
2021/10/15 05:22:10;;;;;;;10.77;5.47;;;;;;;10.14;78.87;101303.03;5014799;28;20384;-74
2021/10/15 05:24:36;;;;;;;16.33;5.63;;;;;;;10.11;78.67;101303.31;5025453;28;20441;-74
2021/10/15 05:27:01;;;;;;;11.80;5.25;;;;;;;10.02;79.43;101294.63;5010416;28;20029;-74
2021/10/15 05:29:27;;;;;;;17.55;5.53;;;;;;;10.00;79.72;101298.28;5012216;28;20033;-74
2021/10/15 05:31:53;;;;;;;15.95;4.78;;;;;;;10.03;79.88;101303.19;5009034;28;20056;-76
2021/10/15 05:34:18;;;;;;;12.95;5.57;;;;;;;10.13;79.63;101298.78;5004134;28;20045;-74
2021/10/15 05:36:44;;;;;;;8.80;5.00;;;;;;;10.11;79.86;101292.94;5012237;28;20041;-74
2021/10/15 05:39:09;;;;;;;14.32;5.32;;;;;;;10.00;80.11;101301.72;5009012;28;20037;-74
2021/10/15 05:41:35;;;;;;;15.73;5.55;;;;;;;10.06;80.15;101295.16;5015207;28;20315;-75
2021/10/15 05:44:00;;;;;;;13.63;5.90;;;;;;;10.10;79.91;101283.56;5000516;28;20043;-74
2021/10/15 05:46:26;;;;;;;13.75;5.03;;;;;;;10.09;80.28;101284.50;5011891;28;20072;-74
2021/10/15 05:48:52;;;;;;;14.60;5.53;;;;;;;10.07;80.10;101287.22;5005613;28;20229;-74
2021/10/15 05:51:17;;;;;;;23.40;5.40;;;;;;;10.07;80.13;101279.44;5010836;28;20034;-75
2021/10/15 05:53:44;;;;;;;15.55;5.50;;;;;;;10.13;80.09;101286.69;5012901;28;20041;-74
2021/10/15 05:58:57;;;;;;;13.63;5.30;;;;;;;10.08;80.51;101295.84;5005712;28;20081;-75
2021/10/15 06:01:25;;;;;;;14.65;5.72;;;;;;;10.02;80.71;101299.81;5008757;28;20029;-75
2021/10/15 06:04:12;;;;;;;13.05;5.35;;;;;;;10.13;80.37;101296.22;5006360;28;20029;-75
2021/10/15 06:14:48;;;;;;;12.23;5.63;;;;;;;10.17;80.49;101301.94;5005576;28;20545;-75
2021/10/15 06:17:17;;;;;;;13.35;5.22;;;;;;;10.21;80.63;101298.94;5012879;28;20034;-76
2021/10/15 06:19:52;;;;;;;8.70;4.50;;;;;;;10.26;80.52;101303.69;5009643;28;20061;-74
2021/10/15 06:22:24;;;;;;;12.05;5.13;;;;;;;10.31;79.57;101304.09;5004522;28;20116;-74
2021/10/15 06:24:51;;;;;;;17.00;5.55;;;;;;;10.29;79.72;101304.22;5006306;28;20614;-76
2021/10/15 06:27:22;;;;;;;13.45;5.03;;;;;;;10.42;79.66;101300.53;5015615;28;20412;-74
2021/10/15 06:29:48;;;;;;;16.17;5.65;;;;;;;10.26;80.29;101295.91;5008756;28;20030;-75
2021/10/15 06:32:15;;;;;;;12.15;5.25;;;;;;;10.33;80.58;101297.81;5013111;28;20040;-75
2021/10/15 06:34:41;;;;;;;16.33;5.38;;;;;;;10.26;80.54;101304.50;4995034;28;20145;-75
2021/10/15 06:37:06;;;;;;;12.15;5.30;;;;;;;10.32;80.42;101298.78;5018464;28;20057;-75
2021/10/15 06:39:32;;;;;;;13.63;5.15;;;;;;;10.28;80.88;101304.34;5013938;28;20040;-75
2021/10/15 06:41:58;;;;;;;22.08;10.18;;;;;;;10.43;80.73;101304.75;5003325;28;20441;-75
2021/10/15 06:44:24;;;;;;;16.92;6.65;;;;;;;10.41;81.08;101299.69;5009491;28;20088;-75
2021/10/15 06:46:49;;;;;;;14.43;5.60;;;;;;;10.34;81.16;101303.84;5015909;28;20087;-74
2021/10/15 06:49:15;;;;;;;19.55;6.20;;;;;;;10.38;80.76;101305.19;5020545;28;20495;-74
2021/10/15 06:51:40;;;;;;;12.27;5.18;;;;;;;10.38;80.82;101307.78;5023750;28;20022;-75
2021/10/15 06:54:06;;;;;;;15.40;5.22;;;;;;;10.36;81.54;101303.66;5018298;28;20060;-74
2021/10/15 06:56:31;;;;;;;18.83;6.20;;;;;;;10.56;80.67;101307.00;5014312;28;20034;-75
2021/10/15 06:58:57;;;;;;;13.32;5.20;;;;;;;10.61;80.28;101320.38;5014384;28;20041;-75
2021/10/15 07:01:22;;;;;;;15.23;5.13;;;;;;;10.63;80.28;101308.06;5016304;28;20375;-75
2021/10/15 07:03:48;;;;;;;15.05;5.22;;;;;;;10.63;79.97;101302.88;5010290;28;20030;-75
2021/10/15 07:06:13;;;;;;;14.52;5.47;;;;;;;10.60;80.53;101316.94;5030290;28;20510;-75
2021/10/15 07:08:39;;;;;;;13.57;5.80;;;;;;;10.71;80.19;101314.16;5013594;28;20120;-75
2021/10/15 07:11:04;;;;;;;12.93;5.00;;;;;;;10.60;80.74;101305.75;5012761;28;20160;-74
2021/10/15 07:13:31;;;;;;;10.30;5.38;;;;;;;10.62;80.97;101303.84;5011438;28;20080;-75
2021/10/15 07:15:57;;;;;;;15.18;5.40;;;;;;;10.59;80.91;101298.97;5018532;28;20037;-75
2021/10/15 07:18:23;;;;;;;15.35;5.43;;;;;;;10.77;80.70;101301.56;5006078;28;20037;-74
2021/10/15 07:20:48;;;;;;;17.25;6.05;;;;;;;10.78;80.59;101298.03;5016531;28;20406;-75
2021/10/15 07:23:15;;;;;;;13.40;5.38;;;;;;;10.69;81.14;101297.94;5007052;28;20041;-75
2021/10/15 07:25:41;;;;;;;12.25;5.95;;;;;;;10.74;80.98;101301.84;5013853;28;20029;-75
2021/10/15 07:28:08;;;;;;;15.55;5.97;;;;;;;10.78;80.36;101309.22;5011791;28;20486;-76
2021/10/15 07:30:33;;;;;;;19.17;5.55;;;;;;;10.86;80.77;101308.50;5006255;28;20588;-74
2021/10/15 07:32:59;;;;;;;13.43;5.13;;;;;;;10.89;80.57;101296.06;5011184;28;20033;-76
2021/10/15 07:35:24;;;;;;;13.50;5.20;;;;;;;10.92;80.08;101305.31;5014411;28;20048;-76
2021/10/15 07:37:50;;;;;;;14.20;4.97;;;;;;;10.93;80.29;101293.19;4991631;28;20033;-74
2021/10/15 07:40:15;;;;;;;14.43;5.80;;;;;;;10.88;81.16;101301.38;4988403;28;20054;-76
2021/10/15 07:42:41;;;;;;;12.93;5.63;;;;;;;10.93;80.84;101301.78;5009455;28;20033;-75
2021/10/15 07:45:07;;;;;;;13.70;5.70;;;;;;;10.95;80.79;101305.03;5007038;28;20116;-75
2021/10/15 07:47:33;;;;;;;15.55;6.43;;;;;;;10.95;81.41;101309.41;5015710;28;20095;-76
2021/10/15 07:49:58;;;;;;;11.48;5.22;;;;;;;11.06;80.73;101310.00;5007430;28;20038;-74
2021/10/15 07:52:24;;;;;;;16.50;5.97;;;;;;;11.17;80.72;101315.94;5014064;28;20033;-74
2021/10/15 07:54:50;;;;;;;17.17;5.30;;;;;;;11.05;81.03;101323.13;5012108;28;20033;-75
2021/10/15 07:57:15;;;;;;;15.75;6.13;;;;;;;11.09;80.95;101325.31;5016157;28;20025;-75
2021/10/15 07:59:41;;;;;;;9.57;5.20;;;;;;;11.09;81.41;101324.47;5014428;28;20032;-74
2021/10/15 08:02:08;;;;;;;15.00;5.55;;;;;;;11.15;80.95;101312.69;5000515;28;20095;-75
2021/10/15 08:04:35;;;;;;;13.73;5.68;;;;;;;11.20;81.24;101320.84;5022360;28;20037;-75
2021/10/15 08:07:02;;;;;;;15.07;6.35;;;;;;;11.19;81.34;101325.25;5013594;28;20107;-75
2021/10/15 08:09:28;;;;;;;20.85;6.45;;;;;;;11.25;81.31;101326.44;5006261;28;20061;-76
2021/10/15 08:11:54;;;;;;;12.80;6.03;;;;;;;11.22;81.67;101327.53;5008913;28;20030;-76
2021/10/15 08:14:20;;;;;;;10.52;5.30;;;;;;;11.16;81.88;101325.53;5017225;28;20037;-74
2021/10/15 08:16:46;;;;;;;10.68;6.10;;;;;;;11.24;82.00;101315.19;5015060;28;20041;-76
2021/10/15 08:19:12;;;;;;;11.38;5.53;;;;;;;11.37;81.76;101291.47;4999233;28;20049;-75
2021/10/15 08:21:37;;;;;;;18.25;6.43;;;;;;;11.47;81.65;101304.38;5013304;28;20378;-75
2021/10/15 08:24:03;;;;;;;25.95;6.90;;;;;;;11.50;81.59;101306.69;5012097;28;20368;-76
2021/10/15 08:26:28;;;;;;;19.42;6.10;;;;;;;11.50;81.93;101320.47;5017808;28;20021;-75
2021/10/15 08:28:59;;;;;;;11.02;6.00;;;;;;;11.60;81.60;101325.63;5018154;28;20037;-75
2021/10/15 08:31:25;;;;;;;11.02;5.90;;;;;;;11.54;81.84;101335.78;5016822;28;20026;-75
2021/10/15 08:33:51;;;;;;;16.65;6.40;;;;;;;11.55;81.88;101333.03;5008467;28;20395;-75
2021/10/15 08:36:17;;;;;;;15.52;6.07;;;;;;;11.60;81.96;101333.41;5020098;28;20029;-75
2021/10/15 08:38:43;;;;;;;18.63;6.47;;;;;;;11.55;82.29;101334.81;5006508;28;20443;-76
2021/10/15 08:41:11;;;;;;;20.38;6.40;;;;;;;11.78;81.83;101337.75;5021973;28;20060;-74
2021/10/15 08:43:40;;;;;;;13.27;6.15;;;;;;;11.89;81.73;101342.72;5006282;28;20402;-76
2021/10/15 08:46:07;;;;;;;17.25;6.72;;;;;;;11.81;81.71;101340.88;5007630;28;20049;-75
2021/10/15 08:48:37;;;;;;;18.13;6.90;;;;;;;11.82;81.54;101347.69;5011191;28;20088;-75
2021/10/15 08:51:03;;;;;;;13.13;6.60;;;;;;;11.76;82.19;101348.28;5012737;28;20038;-75
2021/10/15 08:53:29;;;;;;;15.13;6.90;;;;;;;11.81;82.84;101356.47;5011333;28;20030;-75
2021/10/15 08:55:54;;;;;;;18.98;7.35;;;;;;;11.83;83.86;101364.13;5011071;28;20049;-78
2021/10/15 08:58:20;;;;;;;19.75;7.47;;;;;;;11.71;85.42;101360.91;5007145;28;20037;-76
2021/10/15 09:00:57;;;;;;;15.73;8.18;;;;;;;11.56;86.66;101362.41;5008823;28;20106;-77
2021/10/15 09:03:23;;;;;;;21.15;8.52;;;;;;;11.61;87.29;101378.38;5022647;28;20411;-76
2021/10/15 09:06:00;;;;;;;23.90;8.63;;;;;;;11.49;87.99;101378.59;5015615;28;20025;-76
2021/10/15 09:08:41;;;;;;;16.48;8.93;;;;;;;11.51;89.35;101396.63;5023498;28;20168;-78
2021/10/15 09:11:37;;;;;;;19.63;9.57;;;;;;;11.44;90.01;101406.78;5012327;28;20048;-80
2021/10/15 09:14:21;;;;;;;26.25;10.48;;;;;;;11.45;90.34;101413.63;5026481;28;20037;-79
2021/10/15 09:17:09;;;;;;;20.83;9.65;;;;;;;11.37;90.90;101410.91;5019534;28;20045;-78
2021/10/15 09:19:50;;;;;;;25.70;10.98;;;;;;;11.40;91.37;101415.00;5011858;28;20089;-77
2021/10/15 09:22:28;;;;;;;25.67;10.82;;;;;;;11.36;92.21;101424.88;5016588;28;20033;-78
2021/10/15 09:25:00;;;;;;;25.50;10.90;;;;;;;11.48;91.60;101425.47;5001675;28;20030;-78
2021/10/15 09:27:39;;;;;;;29.70;11.45;;;;;;;11.41;92.26;101422.63;5020254;28;20029;-78
2021/10/15 09:30:10;;;;;;;23.33;11.07;;;;;;;11.54;92.56;101426.66;5018587;28;20116;-78
2021/10/15 09:33:09;;;;;;;18.60;10.38;;;;;;;11.53;92.84;101425.03;5025015;28;20057;-77
2021/10/15 09:35:35;;;;;;;24.95;10.88;;;;;;;11.69;92.72;101428.59;4995990;28;20046;-77
2021/10/15 09:38:05;;;;;;;21.73;10.93;;;;;;;11.64;93.03;101433.44;4996440;28;20056;-77
2021/10/15 09:40:40;;;;;;;17.15;10.20;;;;;;;11.87;93.02;101433.00;5010838;28;20029;-78
2021/10/15 09:43:09;;;;;;;24.10;11.10;;;;;;;11.78;93.09;101437.31;4999229;28;20140;-76
2021/10/15 09:45:40;;;;;;;20.60;9.88;;;;;;;11.85;93.39;101443.53;5031583;28;20074;-76
2021/10/15 09:48:19;;;;;;;25.17;10.18;;;;;;;11.79;92.88;101444.13;5010761;28;20045;-76
2021/10/15 09:50:45;;;;;;;22.75;10.10;;;;;;;11.73;92.72;101452.50;5009656;28;20124;-77
2021/10/15 09:53:10;;;;;;;18.48;9.82;;;;;;;11.80;92.38;101455.34;5009424;28;21472;-77
2021/10/15 09:55:41;;;;;;;22.25;9.52;;;;;;;11.69;93.04;101451.97;4998806;28;20045;-77
2021/10/15 09:58:17;;;;;;;18.27;9.20;;;;;;;11.66;93.82;101461.88;4998183;28;20045;-76
2021/10/15 10:00:42;;;;;;;21.17;10.32;;;;;;;11.75;93.32;101455.78;4992080;28;20037;-77
2021/10/15 10:03:08;;;;;;;15.63;9.60;;;;;;;11.66;93.28;101470.47;5014592;28;20036;-78
2021/10/15 10:05:35;;;;;;;20.75;9.23;;;;;;;11.69;93.57;101469.34;5012799;28;20033;-77
2021/10/15 10:08:01;;;;;;;20.58;10.70;;;;;;;11.78;93.21;101470.25;5019026;28;20108;-77
2021/10/15 10:10:30;;;;;;;19.83;9.50;;;;;;;11.78;93.25;101475.47;5012407;28;20116;-77
2021/10/15 10:12:57;;;;;;;19.25;9.23;;;;;;;11.83;93.54;101481.03;4995757;28;20065;-77
2021/10/15 10:15:29;;;;;;;17.95;9.63;;;;;;;11.91;93.15;101480.34;4999202;28;20026;-77
2021/10/15 10:20:52;;;;;;;11.98;8.07;;;;;;;12.04;92.81;101488.56;5028795;28;20113;-77
2021/10/15 10:23:41;;;;;;;15.35;7.57;;;;;;;11.97;92.09;101493.53;5019998;28;20045;-78
2021/10/15 10:26:11;;;;;;;11.00;6.38;;;;;;;12.05;91.46;101496.22;5018355;28;20120;-77
2021/10/15 10:28:37;;;;;;;11.88;6.63;;;;;;;12.14;91.48;101502.31;5005982;28;20201;-77
2021/10/15 10:31:07;;;;;;;10.48;5.60;;;;;;;12.05;91.80;101503.19;5021300;28;20087;-77
2021/10/15 10:33:58;;;;;;;14.85;10.75;;;;;;;11.89;90.74;101509.03;5010939;28;20145;-77
2021/10/15 10:36:24;;;;;;;13.65;8.60;;;;;;;11.87;91.36;101518.75;5014439;28;20041;-76
2021/10/15 10:38:50;;;;;;;7.15;5.43;;;;;;;11.82;89.94;101518.38;5012811;28;20400;-77
2021/10/15 10:41:18;;;;;;;8.25;3.67;;;;;;;11.75;85.60;101525.09;5013995;28;20026;-77
2021/10/15 10:43:43;;;;;;;6.90;2.08;;;;;;;11.77;84.64;101516.22;5012092;28;20034;-76
2021/10/15 10:46:13;;;;;;;2.08;1.02;;;;;;;11.74;83.77;101526.91;5016801;28;20037;-77
2021/10/15 10:48:50;;;;;;;5.10;1.80;;;;;;;11.77;83.04;101534.41;5012433;28;20367;-79
2021/10/15 10:51:20;;;;;;;6.57;2.58;;;;;;;11.81;83.86;101538.34;5010917;28;20183;-77
2021/10/15 10:54:04;;;;;;;12.30;3.15;;;;;;;11.84;83.19;101548.44;5009413;28;20085;-76
2021/10/15 10:56:38;;;;;;;8.55;1.50;;;;;;;11.93;85.20;101548.56;5043194;28;20084;-77
2021/10/15 10:59:22;;;;;;;9.63;4.70;;;;;;;11.84;82.40;101550.22;5018552;28;20033;-77
2021/10/15 11:01:53;;;;;;;5.28;2.63;;;;;;;11.88;82.25;101562.78;5021684;28;20029;-77
2021/10/15 11:04:29;;;;;;;12.23;5.95;;;;;;;11.88;83.11;101562.78;5023405;28;20557;-78
2021/10/15 11:06:57;;;;;;;17.23;7.35;;;;;;;11.93;83.15;101551.97;5021207;28;20124;-79
2021/10/15 11:09:48;;;;;;;14.98;8.10;;;;;;;12.05;83.00;101550.81;5004101;28;20041;-77
2021/10/15 11:12:13;;;;;;;3.90;1.50;;;;;;;12.03;83.42;101551.91;5017070;28;21264;-78
2021/10/15 11:14:58;;;;;;;5.68;1.10;;;;;;;12.16;83.80;101547.16;5024103;28;20037;-78
2021/10/15 11:17:30;;;;;;;4.13;1.13;;;;;;;12.31;83.75;101552.66;5013822;28;20321;-77
2021/10/15 11:20:21;;;;;;;2.40;1.00;;;;;;;12.39;79.41;101552.72;5031709;28;20112;-76
2021/10/15 11:23:00;;;;;;;1.98;0.90;;;;;;;12.45;80.75;101559.13;5011450;28;20402;-76
2021/10/15 11:25:45;;;;;;;4.35;1.02;;;;;;;12.66;81.11;101557.03;5021244;28;20037;-77
2021/10/15 11:28:17;;;;;;;2.95;0.90;;;;;;;12.64;79.20;101553.75;5018068;28;20554;-77
2021/10/15 11:30:48;;;;;;;8.73;1.40;;;;;;;12.55;78.44;101567.66;5012309;28;20075;-78
2021/10/15 11:33:19;;;;;;;6.95;0.75;;;;;;;12.64;78.26;101564.16;5030571;28;20135;-77
2021/10/15 11:35:49;;;;;;;4.53;0.70;;;;;;;12.81;79.00;101567.72;5005523;28;20046;-77